sensor_id;sensor_type;location;lat;lon;timestamp;P1;durP1;ratioP1;P2;durP2;ratioP2
22665;SDS011;11499;49.486;11.104;2022-08-14T00:02:01;7.77;;;7.17;;
22665;SDS011;11499;49.486;11.104;2022-08-14T00:07:17;7.60;;;7.00;;
22665;SDS011;11499;49.486;11.104;2022-08-14T00:09:43;7.63;;;7.03;;
22665;SDS011;11499;49.486;11.104;2022-08-14T00:12:09;7.60;;;7.00;;
22665;SDS011;11499;49.486;11.104;2022-08-14T00:14:35;7.30;;;6.60;;
22665;SDS011;11499;49.486;11.104;2022-08-14T00:17:01;8.27;;;7.40;;
22665;SDS011;11499;49.486;11.104;2022-08-14T00:19:27;8.33;;;7.67;;
22665;SDS011;11499;49.486;11.104;2022-08-14T00:21:53;7.23;;;6.73;;
22665;SDS011;11499;49.486;11.104;2022-08-14T00:24:19;7.57;;;6.97;;
22665;SDS011;11499;49.486;11.104;2022-08-14T00:26:45;8.13;;;7.33;;
22665;SDS011;11499;49.486;11.104;2022-08-14T00:29:11;8.00;;;7.20;;
22665;SDS011;11499;49.486;11.104;2022-08-14T00:34:30;8.20;;;7.13;;
22665;SDS011;11499;49.486;11.104;2022-08-14T00:36:56;7.97;;;7.27;;
22665;SDS011;11499;49.486;11.104;2022-08-14T00:39:22;8.90;;;7.53;;
22665;SDS011;11499;49.486;11.104;2022-08-14T00:41:48;7.77;;;7.00;;
22665;SDS011;11499;49.486;11.104;2022-08-14T00:44:13;7.57;;;6.87;;
22665;SDS011;11499;49.486;11.104;2022-08-14T00:46:40;8.33;;;7.50;;
22665;SDS011;11499;49.486;11.104;2022-08-14T00:49:05;8.37;;;7.67;;
22665;SDS011;11499;49.486;11.104;2022-08-14T00:51:32;7.77;;;7.10;;
22665;SDS011;11499;49.486;11.104;2022-08-14T00:53:58;8.27;;;7.47;;
22665;SDS011;11499;49.486;11.104;2022-08-14T00:56:24;9.03;;;7.83;;
22665;SDS011;11499;49.486;11.104;2022-08-14T01:01:32;8.87;;;8.07;;
22665;SDS011;11499;49.486;11.104;2022-08-14T01:04:00;8.53;;;7.83;;
22665;SDS011;11499;49.486;11.104;2022-08-14T01:06:27;9.47;;;8.67;;
22665;SDS011;11499;49.486;11.104;2022-08-14T01:08:56;10.27;;;9.27;;
22665;SDS011;11499;49.486;11.104;2022-08-14T01:11:23;11.00;;;9.40;;
22665;SDS011;11499;49.486;11.104;2022-08-14T01:13:50;10.07;;;9.17;;
22665;SDS011;11499;49.486;11.104;2022-08-14T01:16:16;10.10;;;9.30;;
22665;SDS011;11499;49.486;11.104;2022-08-14T01:18:44;10.07;;;9.23;;
22665;SDS011;11499;49.486;11.104;2022-08-14T01:21:33;11.13;;;9.80;;
22665;SDS011;11499;49.486;11.104;2022-08-14T01:24:00;11.03;;;10.23;;
22665;SDS011;11499;49.486;11.104;2022-08-14T01:29:02;9.50;;;8.63;;
22665;SDS011;11499;49.486;11.104;2022-08-14T01:31:30;9.97;;;9.07;;
22665;SDS011;11499;49.486;11.104;2022-08-14T01:33:59;10.23;;;9.33;;
22665;SDS011;11499;49.486;11.104;2022-08-14T01:36:28;10.30;;;9.37;;
22665;SDS011;11499;49.486;11.104;2022-08-14T01:39:00;10.43;;;9.43;;
22665;SDS011;11499;49.486;11.104;2022-08-14T01:41:38;10.23;;;9.43;;
22665;SDS011;11499;49.486;11.104;2022-08-14T01:44:11;10.23;;;9.43;;
22665;SDS011;11499;49.486;11.104;2022-08-14T01:46:40;10.33;;;9.30;;
22665;SDS011;11499;49.486;11.104;2022-08-14T01:49:09;10.90;;;10.00;;
22665;SDS011;11499;49.486;11.104;2022-08-14T01:51:40;10.57;;;9.60;;
22665;SDS011;11499;49.486;11.104;2022-08-14T01:56:47;10.57;;;9.63;;
22665;SDS011;11499;49.486;11.104;2022-08-14T02:01:41;10.57;;;9.73;;
22665;SDS011;11499;49.486;11.104;2022-08-14T02:04:08;10.40;;;9.60;;
22665;SDS011;11499;49.486;11.104;2022-08-14T02:06:35;10.63;;;9.73;;
22665;SDS011;11499;49.486;11.104;2022-08-14T02:09:03;10.37;;;9.57;;
22665;SDS011;11499;49.486;11.104;2022-08-14T02:11:29;10.60;;;9.80;;
22665;SDS011;11499;49.486;11.104;2022-08-14T02:14:00;10.33;;;9.33;;
22665;SDS011;11499;49.486;11.104;2022-08-14T02:16:29;11.47;;;10.47;;
22665;SDS011;11499;49.486;11.104;2022-08-14T02:19:01;10.30;;;9.30;;
22665;SDS011;11499;49.486;11.104;2022-08-14T02:24:17;10.70;;;9.83;;
22665;SDS011;11499;49.486;11.104;2022-08-14T02:26:47;10.33;;;9.43;;
22665;SDS011;11499;49.486;11.104;2022-08-14T02:29:14;10.30;;;9.37;;
22665;SDS011;11499;49.486;11.104;2022-08-14T02:31:44;10.37;;;9.47;;
22665;SDS011;11499;49.486;11.104;2022-08-14T02:36:39;10.63;;;9.70;;
22665;SDS011;11499;49.486;11.104;2022-08-14T02:39:06;9.83;;;8.97;;
22665;SDS011;11499;49.486;11.104;2022-08-14T02:41:33;10.47;;;9.57;;
22665;SDS011;11499;49.486;11.104;2022-08-14T02:44:00;10.47;;;9.40;;
22665;SDS011;11499;49.486;11.104;2022-08-14T02:46:26;10.43;;;9.43;;
22665;SDS011;11499;49.486;11.104;2022-08-14T02:51:30;10.97;;;10.07;;
22665;SDS011;11499;49.486;11.104;2022-08-14T02:53:56;10.17;;;9.37;;
22665;SDS011;11499;49.486;11.104;2022-08-14T02:56:22;9.63;;;8.93;;
22665;SDS011;11499;49.486;11.104;2022-08-14T02:58:51;10.03;;;9.23;;
22665;SDS011;11499;49.486;11.104;2022-08-14T03:01:19;10.80;;;9.90;;
22665;SDS011;11499;49.486;11.104;2022-08-14T03:03:47;10.50;;;9.50;;
22665;SDS011;11499;49.486;11.104;2022-08-14T03:06:14;10.73;;;9.73;;
22665;SDS011;11499;49.486;11.104;2022-08-14T03:08:41;10.40;;;9.60;;
22665;SDS011;11499;49.486;11.104;2022-08-14T03:11:08;10.90;;;9.90;;
22665;SDS011;11499;49.486;11.104;2022-08-14T03:13:36;10.13;;;9.33;;
22665;SDS011;11499;49.486;11.104;2022-08-14T03:18:51;10.33;;;9.37;;
22665;SDS011;11499;49.486;11.104;2022-08-14T03:21:19;10.40;;;9.57;;
22665;SDS011;11499;49.486;11.104;2022-08-14T03:23:48;10.27;;;9.37;;
22665;SDS011;11499;49.486;11.104;2022-08-14T03:26:21;10.60;;;9.70;;
22665;SDS011;11499;49.486;11.104;2022-08-14T03:28:50;10.83;;;9.77;;
22665;SDS011;11499;49.486;11.104;2022-08-14T03:31:16;10.50;;;9.50;;
22665;SDS011;11499;49.486;11.104;2022-08-14T03:33:48;10.17;;;9.33;;
22665;SDS011;11499;49.486;11.104;2022-08-14T03:36:15;10.27;;;9.37;;
22665;SDS011;11499;49.486;11.104;2022-08-14T03:38:44;11.20;;;10.27;;
22665;SDS011;11499;49.486;11.104;2022-08-14T03:41:11;11.43;;;10.50;;
22665;SDS011;11499;49.486;11.104;2022-08-14T03:46:19;12.07;;;11.03;;
22665;SDS011;11499;49.486;11.104;2022-08-14T03:48:46;12.93;;;11.73;;
22665;SDS011;11499;49.486;11.104;2022-08-14T03:51:12;12.83;;;11.73;;
22665;SDS011;11499;49.486;11.104;2022-08-14T03:53:39;13.63;;;12.43;;
22665;SDS011;11499;49.486;11.104;2022-08-14T03:56:06;13.27;;;12.07;;
22665;SDS011;11499;49.486;11.104;2022-08-14T03:58:37;13.47;;;12.33;;
22665;SDS011;11499;49.486;11.104;2022-08-14T04:01:04;13.30;;;12.20;;
22665;SDS011;11499;49.486;11.104;2022-08-14T04:03:29;14.20;;;13.10;;
22665;SDS011;11499;49.486;11.104;2022-08-14T04:05:55;13.27;;;12.17;;
22665;SDS011;11499;49.486;11.104;2022-08-14T04:08:21;14.77;;;13.57;;
22665;SDS011;11499;49.486;11.104;2022-08-14T04:12:19;13.13;;;12.03;;
22665;SDS011;11499;49.486;11.104;2022-08-14T04:14:45;13.13;;;11.93;;
22665;SDS011;11499;49.486;11.104;2022-08-14T04:17:12;12.77;;;11.77;;
22665;SDS011;11499;49.486;11.104;2022-08-14T04:19:38;12.73;;;11.63;;
22665;SDS011;11499;49.486;11.104;2022-08-14T04:22:04;12.93;;;11.83;;
22665;SDS011;11499;49.486;11.104;2022-08-14T04:24:30;11.83;;;10.83;;
22665;SDS011;11499;49.486;11.104;2022-08-14T04:26:57;12.40;;;11.40;;
22665;SDS011;11499;49.486;11.104;2022-08-14T04:29:23;11.83;;;10.77;;
22665;SDS011;11499;49.486;11.104;2022-08-14T04:31:49;11.73;;;10.73;;
22665;SDS011;11499;49.486;11.104;2022-08-14T04:34:15;12.67;;;10.63;;
22665;SDS011;11499;49.486;11.104;2022-08-14T04:39:32;11.33;;;10.33;;
22665;SDS011;11499;49.486;11.104;2022-08-14T04:42:16;10.77;;;9.87;;
22665;SDS011;11499;49.486;11.104;2022-08-14T04:45:00;9.90;;;9.03;;
22665;SDS011;11499;49.486;11.104;2022-08-14T04:47:26;10.80;;;9.87;;
22665;SDS011;11499;49.486;11.104;2022-08-14T04:50:10;10.67;;;9.67;;
22665;SDS011;11499;49.486;11.104;2022-08-14T04:52:35;10.23;;;9.43;;
22665;SDS011;11499;49.486;11.104;2022-08-14T04:55:01;9.90;;;9.10;;
22665;SDS011;11499;49.486;11.104;2022-08-14T04:57:28;10.33;;;9.50;;
22665;SDS011;11499;49.486;11.104;2022-08-14T04:59:54;9.33;;;8.53;;
22665;SDS011;11499;49.486;11.104;2022-08-14T05:02:20;9.77;;;8.97;;
22665;SDS011;11499;49.486;11.104;2022-08-14T05:07:22;9.82;;;9.02;;
22665;SDS011;11499;49.486;11.104;2022-08-14T05:09:48;9.07;;;8.23;;
22665;SDS011;11499;49.486;11.104;2022-08-14T05:12:13;9.00;;;8.30;;
22665;SDS011;11499;49.486;11.104;2022-08-14T05:14:39;8.60;;;7.90;;
22665;SDS011;11499;49.486;11.104;2022-08-14T05:17:05;9.25;;;8.45;;
22665;SDS011;11499;49.486;11.104;2022-08-14T05:19:30;8.80;;;7.93;;
22665;SDS011;11499;49.486;11.104;2022-08-14T05:21:56;8.65;;;7.95;;
22665;SDS011;11499;49.486;11.104;2022-08-14T05:24:23;8.93;;;8.23;;
22665;SDS011;11499;49.486;11.104;2022-08-14T05:26:49;8.98;;;8.27;;
22665;SDS011;11499;49.486;11.104;2022-08-14T05:29:14;9.00;;;8.20;;
22665;SDS011;11499;49.486;11.104;2022-08-14T05:34:14;8.38;;;7.68;;
22665;SDS011;11499;49.486;11.104;2022-08-14T05:36:39;7.57;;;6.97;;
22665;SDS011;11499;49.486;11.104;2022-08-14T05:39:06;8.00;;;7.40;;
22665;SDS011;11499;49.486;11.104;2022-08-14T05:41:32;8.30;;;7.63;;
22665;SDS011;11499;49.486;11.104;2022-08-14T05:43:58;8.20;;;7.50;;
22665;SDS011;11499;49.486;11.104;2022-08-14T05:46:24;7.88;;;7.28;;
22665;SDS011;11499;49.486;11.104;2022-08-14T05:48:54;7.70;;;7.10;;
22665;SDS011;11499;49.486;11.104;2022-08-14T05:51:21;8.32;;;7.72;;
22665;SDS011;11499;49.486;11.104;2022-08-14T05:53:47;8.98;;;7.53;;
22665;SDS011;11499;49.486;11.104;2022-08-14T05:56:13;8.77;;;7.97;;
22665;SDS011;11499;49.486;11.104;2022-08-14T06:02:07;8.20;;;7.53;;
22665;SDS011;11499;49.486;11.104;2022-08-14T06:04:33;8.45;;;7.75;;
22665;SDS011;11499;49.486;11.104;2022-08-14T06:06:58;8.50;;;7.75;;
22665;SDS011;11499;49.486;11.104;2022-08-14T06:09:24;8.25;;;7.55;;
22665;SDS011;11499;49.486;11.104;2022-08-14T06:11:49;8.07;;;7.47;;
22665;SDS011;11499;49.486;11.104;2022-08-14T06:14:15;7.85;;;7.07;;
22665;SDS011;11499;49.486;11.104;2022-08-14T06:16:41;8.50;;;7.60;;
22665;SDS011;11499;49.486;11.104;2022-08-14T06:19:09;8.15;;;7.35;;
22665;SDS011;11499;49.486;11.104;2022-08-14T06:21:34;8.20;;;7.35;;
22665;SDS011;11499;49.486;11.104;2022-08-14T06:24:00;7.35;;;6.65;;
22665;SDS011;11499;49.486;11.104;2022-08-14T06:29:10;7.65;;;7.05;;
22665;SDS011;11499;49.486;11.104;2022-08-14T06:31:35;8.25;;;7.55;;
22665;SDS011;11499;49.486;11.104;2022-08-14T06:34:01;8.18;;;7.10;;
22665;SDS011;11499;49.486;11.104;2022-08-14T06:36:26;7.60;;;7.00;;
22665;SDS011;11499;49.486;11.104;2022-08-14T06:38:53;7.72;;;7.10;;
22665;SDS011;11499;49.486;11.104;2022-08-14T06:41:18;8.45;;;7.75;;
22665;SDS011;11499;49.486;11.104;2022-08-14T06:43:44;7.10;;;6.55;;
22665;SDS011;11499;49.486;11.104;2022-08-14T06:46:09;7.45;;;6.85;;
22665;SDS011;11499;49.486;11.104;2022-08-14T06:48:35;7.60;;;7.00;;
22665;SDS011;11499;49.486;11.104;2022-08-14T06:51:01;7.32;;;6.72;;
22665;SDS011;11499;49.486;11.104;2022-08-14T06:56:22;7.15;;;6.55;;
22665;SDS011;11499;49.486;11.104;2022-08-14T06:58:48;7.30;;;6.70;;
22665;SDS011;11499;49.486;11.104;2022-08-14T07:01:17;7.95;;;7.25;;
22665;SDS011;11499;49.486;11.104;2022-08-14T07:04:01;7.47;;;6.82;;
22665;SDS011;11499;49.486;11.104;2022-08-14T07:06:45;7.40;;;6.70;;
22665;SDS011;11499;49.486;11.104;2022-08-14T07:09:11;7.03;;;6.43;;
22665;SDS011;11499;49.486;11.104;2022-08-14T07:11:36;6.68;;;6.07;;
22665;SDS011;11499;49.486;11.104;2022-08-14T07:14:02;6.60;;;6.00;;
22665;SDS011;11499;49.486;11.104;2022-08-14T07:16:28;6.93;;;6.32;;
22665;SDS011;11499;49.486;11.104;2022-08-14T07:18:54;6.50;;;5.97;;
22665;SDS011;11499;49.486;11.104;2022-08-14T07:21:20;6.70;;;6.10;;
22665;SDS011;11499;49.486;11.104;2022-08-14T07:23:45;6.57;;;6.07;;
22665;SDS011;11499;49.486;11.104;2022-08-14T07:28:44;6.65;;;6.00;;
22665;SDS011;11499;49.486;11.104;2022-08-14T07:31:11;5.85;;;5.38;;
22665;SDS011;11499;49.486;11.104;2022-08-14T07:33:38;6.72;;;6.03;;
22665;SDS011;11499;49.486;11.104;2022-08-14T07:36:09;5.70;;;5.20;;
22665;SDS011;11499;49.486;11.104;2022-08-14T07:38:36;5.72;;;5.22;;
22665;SDS011;11499;49.486;11.104;2022-08-14T07:41:04;5.95;;;5.47;;
22665;SDS011;11499;49.486;11.104;2022-08-14T07:43:31;5.13;;;4.72;;
22665;SDS011;11499;49.486;11.104;2022-08-14T07:45:56;5.70;;;5.22;;
22665;SDS011;11499;49.486;11.104;2022-08-14T07:48:22;5.32;;;4.93;;
22665;SDS011;11499;49.486;11.104;2022-08-14T07:50:47;6.20;;;5.32;;
22665;SDS011;11499;49.486;11.104;2022-08-14T07:55:15;5.32;;;4.93;;
22665;SDS011;11499;49.486;11.104;2022-08-14T07:57:44;6.13;;;5.63;;
22665;SDS011;11499;49.486;11.104;2022-08-14T08:00:11;5.43;;;5.03;;
22665;SDS011;11499;49.486;11.104;2022-08-14T08:02:39;5.68;;;5.20;;
22665;SDS011;11499;49.486;11.104;2022-08-14T08:05:06;5.72;;;5.10;;
22665;SDS011;11499;49.486;11.104;2022-08-14T08:07:33;5.30;;;4.90;;
22665;SDS011;11499;49.486;11.104;2022-08-14T08:10:05;5.85;;;5.35;;
22665;SDS011;11499;49.486;11.104;2022-08-14T08:12:53;5.30;;;4.90;;
22665;SDS011;11499;49.486;11.104;2022-08-14T08:15:21;5.05;;;4.65;;
22665;SDS011;11499;49.486;11.104;2022-08-14T08:20:57;5.55;;;5.05;;
22665;SDS011;11499;49.486;11.104;2022-08-14T08:23:23;5.22;;;4.82;;
22665;SDS011;11499;49.486;11.104;2022-08-14T08:25:50;5.05;;;4.60;;
22665;SDS011;11499;49.486;11.104;2022-08-14T08:28:18;4.63;;;4.22;;
22665;SDS011;11499;49.486;11.104;2022-08-14T08:30:53;4.78;;;4.47;;
22665;SDS011;11499;49.486;11.104;2022-08-14T08:33:30;4.43;;;4.03;;
22665;SDS011;11499;49.486;11.104;2022-08-14T08:36:00;4.10;;;3.60;;
22665;SDS011;11499;49.486;11.104;2022-08-14T08:38:29;4.00;;;3.70;;
22665;SDS011;11499;49.486;11.104;2022-08-14T08:40:55;4.13;;;3.83;;
22665;SDS011;11499;49.486;11.104;2022-08-14T08:43:23;4.40;;;4.00;;
22665;SDS011;11499;49.486;11.104;2022-08-14T08:48:20;4.70;;;4.30;;
22665;SDS011;11499;49.486;11.104;2022-08-14T08:50:47;4.10;;;3.80;;
22665;SDS011;11499;49.486;11.104;2022-08-14T08:53:12;4.95;;;4.00;;
22665;SDS011;11499;49.486;11.104;2022-08-14T08:55:38;4.50;;;4.10;;
22665;SDS011;11499;49.486;11.104;2022-08-14T08:58:09;4.25;;;3.92;;
22665;SDS011;11499;49.486;11.104;2022-08-14T09:00:38;4.22;;;3.92;;
22665;SDS011;11499;49.486;11.104;2022-08-14T09:03:09;4.18;;;3.42;;
22665;SDS011;11499;49.486;11.104;2022-08-14T09:05:37;4.15;;;3.65;;
22665;SDS011;11499;49.486;11.104;2022-08-14T09:08:20;4.28;;;3.97;;
22665;SDS011;11499;49.486;11.104;2022-08-14T09:13:29;4.78;;;4.20;;
22665;SDS011;11499;49.486;11.104;2022-08-14T09:15:55;4.80;;;4.40;;
22665;SDS011;11499;49.486;11.104;2022-08-14T09:18:21;4.35;;;4.05;;
22665;SDS011;11499;49.486;11.104;2022-08-14T09:20:48;4.32;;;3.92;;
22665;SDS011;11499;49.486;11.104;2022-08-14T09:23:15;5.53;;;4.50;;
22665;SDS011;11499;49.486;11.104;2022-08-14T09:25:42;4.53;;;4.13;;
22665;SDS011;11499;49.486;11.104;2022-08-14T09:28:10;4.85;;;4.45;;
22665;SDS011;11499;49.486;11.104;2022-08-14T09:30:38;5.65;;;4.40;;
22665;SDS011;11499;49.486;11.104;2022-08-14T09:33:14;5.30;;;4.82;;
22665;SDS011;11499;49.486;11.104;2022-08-14T09:36:05;4.93;;;4.53;;
22665;SDS011;11499;49.486;11.104;2022-08-14T09:43:26;4.88;;;4.47;;
22665;SDS011;11499;49.486;11.104;2022-08-14T09:45:57;4.90;;;4.50;;
22665;SDS011;11499;49.486;11.104;2022-08-14T09:48:23;5.28;;;4.75;;
22665;SDS011;11499;49.486;11.104;2022-08-14T09:50:54;5.18;;;4.10;;
22665;SDS011;11499;49.486;11.104;2022-08-14T09:53:33;5.00;;;4.57;;
22665;SDS011;11499;49.486;11.104;2022-08-14T09:56:02;4.50;;;4.10;;
22665;SDS011;11499;49.486;11.104;2022-08-14T09:58:40;4.45;;;4.15;;
22665;SDS011;11499;49.486;11.104;2022-08-14T10:01:11;4.38;;;4.07;;
22665;SDS011;11499;49.486;11.104;2022-08-14T10:06:44;5.13;;;4.68;;
22665;SDS011;11499;49.486;11.104;2022-08-14T10:09:11;5.03;;;4.55;;
22665;SDS011;11499;49.486;11.104;2022-08-14T10:11:38;4.68;;;4.07;;
22665;SDS011;11499;49.486;11.104;2022-08-14T10:16:47;4.97;;;4.47;;
22665;SDS011;11499;49.486;11.104;2022-08-14T10:19:15;4.80;;;4.47;;
22665;SDS011;11499;49.486;11.104;2022-08-14T10:21:43;5.68;;;5.18;;
22665;SDS011;11499;49.486;11.104;2022-08-14T10:24:31;5.10;;;4.70;;
22665;SDS011;11499;49.486;11.104;2022-08-14T10:27:11;4.82;;;4.43;;
22665;SDS011;11499;49.486;11.104;2022-08-14T10:29:42;4.78;;;4.38;;
22665;SDS011;11499;49.486;11.104;2022-08-14T10:34:04;4.80;;;4.40;;
22665;SDS011;11499;49.486;11.104;2022-08-14T10:36:33;4.72;;;4.22;;
22665;SDS011;11499;49.486;11.104;2022-08-14T10:39:04;4.55;;;3.95;;
22665;SDS011;11499;49.486;11.104;2022-08-14T10:41:42;4.40;;;4.00;;
22665;SDS011;11499;49.486;11.104;2022-08-14T10:46:42;3.78;;;3.42;;
22665;SDS011;11499;49.486;11.104;2022-08-14T10:49:20;4.18;;;3.70;;
22665;SDS011;11499;49.486;11.104;2022-08-14T10:51:57;4.45;;;4.05;;
22665;SDS011;11499;49.486;11.104;2022-08-14T10:54:32;6.00;;;4.07;;
22665;SDS011;11499;49.486;11.104;2022-08-14T10:57:12;4.72;;;3.80;;
22665;SDS011;11499;49.486;11.104;2022-08-14T10:59:43;4.13;;;3.72;;
22665;SDS011;11499;49.486;11.104;2022-08-14T11:07:53;4.97;;;4.38;;
22665;SDS011;11499;49.486;11.104;2022-08-14T11:10:19;4.13;;;3.83;;
22665;SDS011;11499;49.486;11.104;2022-08-14T11:12:47;4.13;;;3.83;;
22665;SDS011;11499;49.486;11.104;2022-08-14T11:15:17;4.57;;;4.05;;
22665;SDS011;11499;49.486;11.104;2022-08-14T11:17:47;4.75;;;4.25;;
22665;SDS011;11499;49.486;11.104;2022-08-14T11:20:15;4.38;;;4.07;;
22665;SDS011;11499;49.486;11.104;2022-08-14T11:22:43;4.50;;;4.10;;
22665;SDS011;11499;49.486;11.104;2022-08-14T11:25:10;5.30;;;4.80;;
22665;SDS011;11499;49.486;11.104;2022-08-14T11:27:43;5.68;;;4.72;;
22665;SDS011;11499;49.486;11.104;2022-08-14T11:33:30;4.55;;;4.20;;
22665;SDS011;11499;49.486;11.104;2022-08-14T11:35:59;4.30;;;3.90;;
22665;SDS011;11499;49.486;11.104;2022-08-14T11:38:39;4.68;;;4.28;;
22665;SDS011;11499;49.486;11.104;2022-08-14T11:41:06;4.50;;;3.92;;
22665;SDS011;11499;49.486;11.104;2022-08-14T11:43:39;4.82;;;4.40;;
22665;SDS011;11499;49.486;11.104;2022-08-14T11:46:06;5.40;;;4.05;;
22665;SDS011;11499;49.486;11.104;2022-08-14T11:48:32;4.70;;;4.30;;
22665;SDS011;11499;49.486;11.104;2022-08-14T11:51:22;5.97;;;4.95;;
22665;SDS011;11499;49.486;11.104;2022-08-14T11:53:54;4.75;;;4.13;;
22665;SDS011;11499;49.486;11.104;2022-08-14T11:58:58;4.97;;;4.20;;
22665;SDS011;11499;49.486;11.104;2022-08-14T12:01:25;4.45;;;4.15;;
22665;SDS011;11499;49.486;11.104;2022-08-14T12:03:53;4.32;;;4.03;;
22665;SDS011;11499;49.486;11.104;2022-08-14T12:06:23;4.72;;;4.32;;
22665;SDS011;11499;49.486;11.104;2022-08-14T12:08:49;5.03;;;4.03;;
22665;SDS011;11499;49.486;11.104;2022-08-14T12:11:17;4.15;;;3.85;;
22665;SDS011;11499;49.486;11.104;2022-08-14T12:13:44;4.60;;;4.15;;
22665;SDS011;11499;49.486;11.104;2022-08-14T12:16:10;4.22;;;3.92;;
22665;SDS011;11499;49.486;11.104;2022-08-14T12:18:38;4.47;;;4.18;;
22665;SDS011;11499;49.486;11.104;2022-08-14T12:21:12;4.00;;;3.70;;
22665;SDS011;11499;49.486;11.104;2022-08-14T12:26:03;4.00;;;3.70;;
22665;SDS011;11499;49.486;11.104;2022-08-14T12:28:29;3.88;;;3.58;;
22665;SDS011;11499;49.486;11.104;2022-08-14T12:30:55;4.20;;;3.83;;
22665;SDS011;11499;49.486;11.104;2022-08-14T12:33:29;4.43;;;4.00;;
22665;SDS011;11499;49.486;11.104;2022-08-14T12:36:00;4.15;;;3.80;;
22665;SDS011;11499;49.486;11.104;2022-08-14T12:38:31;4.40;;;4.00;;
22665;SDS011;11499;49.486;11.104;2022-08-14T12:41:09;5.05;;;3.90;;
22665;SDS011;11499;49.486;11.104;2022-08-14T12:43:47;4.43;;;4.00;;
22665;SDS011;11499;49.486;11.104;2022-08-14T12:46:25;4.60;;;4.20;;
22665;SDS011;11499;49.486;11.104;2022-08-14T12:48:54;4.40;;;4.00;;
22665;SDS011;11499;49.486;11.104;2022-08-14T12:53:58;4.55;;;4.25;;
22665;SDS011;11499;49.486;11.104;2022-08-14T12:56:24;3.97;;;3.58;;
22665;SDS011;11499;49.486;11.104;2022-08-14T12:58:51;4.05;;;3.75;;
22665;SDS011;11499;49.486;11.104;2022-08-14T13:01:22;4.43;;;3.78;;
22665;SDS011;11499;49.486;11.104;2022-08-14T13:04:01;4.43;;;4.03;;
22665;SDS011;11499;49.486;11.104;2022-08-14T13:06:32;3.95;;;3.65;;
22665;SDS011;11499;49.486;11.104;2022-08-14T13:08:59;4.13;;;3.72;;
22665;SDS011;11499;49.486;11.104;2022-08-14T13:11:24;4.55;;;3.92;;
22665;SDS011;11499;49.486;11.104;2022-08-14T13:13:55;4.95;;;3.80;;
22665;SDS011;11499;49.486;11.104;2022-08-14T13:16:22;4.97;;;3.90;;
22665;SDS011;11499;49.486;11.104;2022-08-14T13:21:27;3.50;;;3.30;;
22665;SDS011;11499;49.486;11.104;2022-08-14T13:23:54;4.05;;;3.72;;
22665;SDS011;11499;49.486;11.104;2022-08-14T13:26:24;3.60;;;3.30;;
22665;SDS011;11499;49.486;11.104;2022-08-14T13:28:50;3.67;;;3.38;;
22665;SDS011;11499;49.486;11.104;2022-08-14T13:31:17;3.53;;;3.33;;
22665;SDS011;11499;49.486;11.104;2022-08-14T13:33:46;3.75;;;3.45;;
22665;SDS011;11499;49.486;11.104;2022-08-14T13:36:12;4.18;;;3.88;;
22665;SDS011;11499;49.486;11.104;2022-08-14T13:38:38;4.03;;;3.63;;
22665;SDS011;11499;49.486;11.104;2022-08-14T13:41:07;5.60;;;4.10;;
22665;SDS011;11499;49.486;11.104;2022-08-14T13:43:34;4.13;;;3.83;;
22665;SDS011;11499;49.486;11.104;2022-08-14T13:46:02;3.80;;;3.50;;
22665;SDS011;11499;49.486;11.104;2022-08-14T13:51:09;4.70;;;4.30;;
22665;SDS011;11499;49.486;11.104;2022-08-14T13:53:41;4.80;;;4.43;;
22665;SDS011;11499;49.486;11.104;2022-08-14T13:56:10;5.57;;;4.45;;
22665;SDS011;11499;49.486;11.104;2022-08-14T13:58:37;4.50;;;4.10;;
22665;SDS011;11499;49.486;11.104;2022-08-14T14:01:02;4.35;;;3.95;;
22665;SDS011;11499;49.486;11.104;2022-08-14T14:03:32;4.30;;;3.90;;
22665;SDS011;11499;49.486;11.104;2022-08-14T14:05:59;5.10;;;4.60;;
22665;SDS011;11499;49.486;11.104;2022-08-14T14:08:26;4.40;;;4.00;;
22665;SDS011;11499;49.486;11.104;2022-08-14T14:10:53;4.78;;;4.38;;
22665;SDS011;11499;49.486;11.104;2022-08-14T14:16:09;4.78;;;4.38;;
22665;SDS011;11499;49.486;11.104;2022-08-14T14:18:35;4.90;;;4.50;;
22665;SDS011;11499;49.486;11.104;2022-08-14T14:21:02;5.13;;;4.20;;
22665;SDS011;11499;49.486;11.104;2022-08-14T14:23:29;4.45;;;4.05;;
22665;SDS011;11499;49.486;11.104;2022-08-14T14:25:55;5.10;;;4.70;;
22665;SDS011;11499;49.486;11.104;2022-08-14T14:28:21;3.88;;;3.58;;
22665;SDS011;11499;49.486;11.104;2022-08-14T14:30:53;5.85;;;4.00;;
22665;SDS011;11499;49.486;11.104;2022-08-14T14:33:19;4.20;;;3.90;;
22665;SDS011;11499;49.486;11.104;2022-08-14T14:35:45;4.10;;;3.80;;
22665;SDS011;11499;49.486;11.104;2022-08-14T14:38:12;4.53;;;4.13;;
22665;SDS011;11499;49.486;11.104;2022-08-14T14:43:18;4.50;;;4.20;;
22665;SDS011;11499;49.486;11.104;2022-08-14T14:45:44;4.22;;;3.92;;
22665;SDS011;11499;49.486;11.104;2022-08-14T14:48:12;4.25;;;3.85;;
22665;SDS011;11499;49.486;11.104;2022-08-14T14:50:38;5.65;;;3.63;;
22665;SDS011;11499;49.486;11.104;2022-08-14T14:53:04;4.15;;;3.75;;
22665;SDS011;11499;49.486;11.104;2022-08-14T14:55:30;4.03;;;3.72;;
22665;SDS011;11499;49.486;11.104;2022-08-14T14:57:57;3.97;;;3.67;;
22665;SDS011;11499;49.486;11.104;2022-08-14T15:00:23;4.10;;;3.80;;
22665;SDS011;11499;49.486;11.104;2022-08-14T15:02:50;4.68;;;4.07;;
22665;SDS011;11499;49.486;11.104;2022-08-14T15:05:17;4.80;;;4.03;;
22665;SDS011;11499;49.486;11.104;2022-08-14T15:09:45;4.68;;;3.90;;
22665;SDS011;11499;49.486;11.104;2022-08-14T15:12:10;5.15;;;4.05;;
22665;SDS011;11499;49.486;11.104;2022-08-14T15:14:36;4.72;;;4.32;;
22665;SDS011;11499;49.486;11.104;2022-08-14T15:17:01;4.03;;;3.72;;
22665;SDS011;11499;49.486;11.104;2022-08-14T15:19:27;4.47;;;4.10;;
22665;SDS011;11499;49.486;11.104;2022-08-14T15:21:53;4.50;;;4.10;;
22665;SDS011;11499;49.486;11.104;2022-08-14T15:24:19;5.28;;;3.85;;
22665;SDS011;11499;49.486;11.104;2022-08-14T15:26:44;4.13;;;3.83;;
22665;SDS011;11499;49.486;11.104;2022-08-14T15:29:10;4.28;;;3.88;;
22665;SDS011;11499;49.486;11.104;2022-08-14T15:31:38;4.75;;;3.83;;
22665;SDS011;11499;49.486;11.104;2022-08-14T15:37:04;4.72;;;4.00;;
22665;SDS011;11499;49.486;11.104;2022-08-14T15:39:31;4.22;;;3.83;;
22665;SDS011;11499;49.486;11.104;2022-08-14T15:41:57;4.55;;;4.15;;
22665;SDS011;11499;49.486;11.104;2022-08-14T15:44:25;4.70;;;4.30;;
22665;SDS011;11499;49.486;11.104;2022-08-14T15:46:52;4.68;;;4.28;;
22665;SDS011;11499;49.486;11.104;2022-08-14T15:49:18;4.57;;;4.18;;
22665;SDS011;11499;49.486;11.104;2022-08-14T15:51:44;4.95;;;4.40;;
22665;SDS011;11499;49.486;11.104;2022-08-14T15:54:10;4.45;;;3.90;;
22665;SDS011;11499;49.486;11.104;2022-08-14T15:56:35;4.38;;;3.97;;
22665;SDS011;11499;49.486;11.104;2022-08-14T15:59:01;4.68;;;4.13;;
22665;SDS011;11499;49.486;11.104;2022-08-14T16:04:07;4.53;;;4.10;;
22665;SDS011;11499;49.486;11.104;2022-08-14T16:06:32;4.32;;;3.75;;
22665;SDS011;11499;49.486;11.104;2022-08-14T16:08:58;4.75;;;4.35;;
22665;SDS011;11499;49.486;11.104;2022-08-14T16:11:24;4.15;;;3.75;;
22665;SDS011;11499;49.486;11.104;2022-08-14T16:13:50;4.53;;;3.97;;
22665;SDS011;11499;49.486;11.104;2022-08-14T16:16:16;4.70;;;4.13;;
22665;SDS011;11499;49.486;11.104;2022-08-14T16:18:43;4.32;;;3.90;;
22665;SDS011;11499;49.486;11.104;2022-08-14T16:21:11;5.00;;;4.25;;
22665;SDS011;11499;49.486;11.104;2022-08-14T16:23:38;4.25;;;3.85;;
22665;SDS011;11499;49.486;11.104;2022-08-14T16:26:09;5.00;;;4.50;;
22665;SDS011;11499;49.486;11.104;2022-08-14T16:31:17;4.57;;;4.20;;